Time;durP1;ratioP1;P1;durP2;ratioP2;P2;SDS_P1;SDS_P2;PMS_P1;PMS_P2;Temp;Humidity;BMP_temperature;BMP_pressure;BME280_temperature;BME280_humidity;BME280_pressure;Samples;Min_cycle;Max_cycle;Signal;HPM_P1;HPM_P2
2021/07/19 00:02:03;;;;;;;22.70;11.87;;;18.80;99.90;;;;;;5126456;27;20685;-71
2021/07/19 00:04:50;;;;;;;19.53;11.03;;;18.80;99.90;;;;;;5153934;27;20698;-72
2021/07/19 00:07:38;;;;;;;19.17;11.20;;;18.80;99.90;;;;;;5136525;27;20196;-71
2021/07/19 00:10:27;;;;;;;17.23;11.33;;;18.80;99.90;;;;;;5149946;27;20211;-71
2021/07/19 00:13:14;;;;;;;24.13;10.77;;;18.80;99.90;;;;;;5154402;27;20236;-71
2021/07/19 00:16:02;;;;;;;22.27;11.33;;;18.80;99.90;;;;;;5153954;27;20200;-72
2021/07/19 00:18:50;;;;;;;25.07;11.50;;;18.80;99.90;;;;;;5145479;27;20644;-71
2021/07/19 00:21:37;;;;;;;18.67;11.70;;;18.70;99.90;;;;;;5133304;27;20226;-71
2021/07/19 00:24:25;;;;;;;19.23;11.07;;;18.70;99.90;;;;;;5148036;27;20205;-71
2021/07/19 00:27:14;;;;;;;19.43;10.97;;;18.70;99.90;;;;;;5147416;27;20720;-71
2021/07/19 00:30:01;;;;;;;19.80;10.87;;;18.70;99.90;;;;;;5124386;27;20211;-71
2021/07/19 00:32:49;;;;;;;26.97;10.60;;;18.70;99.90;;;;;;5136486;27;20200;-71
2021/07/19 00:35:36;;;;;;;28.00;10.17;;;18.60;99.90;;;;;;5138175;27;20198;-72
2021/07/19 00:38:24;;;;;;;18.47;9.43;;;18.60;99.90;;;;;;5147699;27;20194;-71
2021/07/19 00:41:12;;;;;;;19.67;9.97;;;18.50;99.90;;;;;;5134205;27;20221;-72
2021/07/19 00:44:01;;;;;;;17.17;9.67;;;18.50;99.90;;;;;;5128260;27;20583;-71
2021/07/19 00:46:48;;;;;;;24.77;9.20;;;18.50;99.90;;;;;;5132064;27;20634;-71
2021/07/19 00:49:36;;;;;;;16.17;8.57;;;18.50;99.90;;;;;;5152553;27;20200;-71
2021/07/19 00:52:23;;;;;;;15.50;9.00;;;18.40;99.90;;;;;;5150359;27;20267;-71
2021/07/19 00:55:12;;;;;;;17.80;8.63;;;18.40;99.90;;;;;;5132156;27;20200;-71
2021/07/19 00:58:00;;;;;;;16.70;8.07;;;18.30;99.90;;;;;;5145605;27;20224;-71
2021/07/19 01:00:53;;;;;;;18.83;8.33;;;18.30;99.90;;;;;;5145828;27;20199;-71
2021/07/19 01:03:40;;;;;;;13.43;7.17;;;18.30;99.90;;;;;;5141932;27;20435;-71
2021/07/19 01:06:31;;;;;;;17.37;6.67;;;18.20;99.90;;;;;;5131434;27;20197;-71
2021/07/19 01:09:18;;;;;;;11.90;7.07;;;18.30;99.90;;;;;;5150715;27;20286;-72
2021/07/19 01:12:06;;;;;;;14.83;5.83;;;18.30;99.90;;;;;;5124005;27;20670;-71
2021/07/19 01:14:54;;;;;;;10.67;6.07;;;18.30;99.90;;;;;;5137527;27;20204;-72
2021/07/19 01:17:43;;;;;;;16.27;5.77;;;18.30;99.90;;;;;;5143642;27;20211;-71
2021/07/19 01:20:38;;;;;;;11.73;5.90;;;18.30;99.90;;;;;;5133381;27;20696;-71
2021/07/19 01:23:37;;;;;;;18.77;6.47;;;18.20;99.90;;;;;;5128242;27;20669;-71
2021/07/19 01:26:30;;;;;;;13.37;6.13;;;18.30;99.90;;;;;;5151605;27;20649;-71
2021/07/19 01:29:19;;;;;;;10.93;6.50;;;18.20;99.90;;;;;;5151573;27;20604;-71
2021/07/19 01:32:07;;;;;;;15.93;6.83;;;18.20;99.90;;;;;;5126142;27;20682;-71
2021/07/19 01:34:55;;;;;;;17.07;6.43;;;18.10;99.90;;;;;;5131393;27;20189;-71
2021/07/19 01:37:44;;;;;;;15.20;6.40;;;18.10;99.90;;;;;;5129803;27;20664;-72
2021/07/19 01:40:32;;;;;;;12.30;6.13;;;18.00;99.90;;;;;;5133073;27;20673;-71
2021/07/19 01:43:19;;;;;;;12.23;6.00;;;18.00;99.90;;;;;;5130872;27;20201;-71
2021/07/19 01:46:08;;;;;;;16.47;6.90;;;17.90;99.90;;;;;;5131192;27;20591;-71
2021/07/19 01:48:56;;;;;;;13.20;6.00;;;17.90;99.90;;;;;;5146328;27;20206;-71
2021/07/19 01:51:43;;;;;;;10.93;6.13;;;17.80;99.90;;;;;;5150188;27;20200;-71
2021/07/19 01:54:31;;;;;;;11.90;6.20;;;17.80;99.90;;;;;;5129194;27;20678;-71
2021/07/19 01:57:18;;;;;;;12.87;5.70;;;17.70;99.90;;;;;;5133784;27;20198;-71
2021/07/19 02:00:08;;;;;;;12.60;6.03;;;17.70;99.90;;;;;;5149786;27;20193;-71
2021/07/19 02:02:57;;;;;;;12.70;5.60;;;17.70;99.90;;;;;;5113023;27;20211;-72
2021/07/19 02:05:45;;;;;;;17.07;5.30;;;17.60;99.90;;;;;;5125147;27;20211;-71
2021/07/19 02:08:32;;;;;;;8.23;4.83;;;17.60;99.90;;;;;;5137724;27;20194;-71
2021/07/19 02:11:22;;;;;;;10.67;5.10;;;17.50;99.90;;;;;;5149490;27;20208;-71
2021/07/19 02:14:10;;;;;;;14.13;5.70;;;17.50;99.90;;;;;;5151506;27;20277;-71
2021/07/19 02:16:57;;;;;;;11.20;4.93;;;17.50;99.90;;;;;;5149014;27;20402;-71
2021/07/19 02:19:47;;;;;;;11.67;4.70;;;17.50;99.90;;;;;;5125847;27;20571;-71
2021/07/19 02:22:35;;;;;;;12.87;4.80;;;17.50;99.90;;;;;;5148656;27;20198;-71
2021/07/19 02:25:22;;;;;;;11.43;4.73;;;17.40;99.90;;;;;;5123585;27;20363;-72
2021/07/19 02:28:11;;;;;;;8.87;4.23;;;17.40;99.90;;;;;;5139847;27;20203;-71
2021/07/19 02:30:58;;;;;;;8.97;4.27;;;17.40;99.90;;;;;;5149098;27;20193;-71
2021/07/19 02:33:46;;;;;;;8.63;4.40;;;17.40;99.90;;;;;;5147462;27;20207;-71
2021/07/19 02:36:35;;;;;;;13.57;4.70;;;17.40;99.90;;;;;;5141597;27;20346;-71
2021/07/19 02:39:23;;;;;;;9.70;4.50;;;17.40;99.90;;;;;;5133085;27;20199;-71
2021/07/19 02:42:11;;;;;;;13.73;4.30;;;17.40;99.90;;;;;;5142479;27;20210;-71
2021/07/19 02:44:58;;;;;;;7.83;4.17;;;17.40;99.90;;;;;;5151001;27;20238;-71
2021/07/19 02:47:46;;;;;;;8.50;3.90;;;17.30;99.90;;;;;;5139956;27;20551;-71
2021/07/19 02:50:35;;;;;;;7.47;4.00;;;17.30;99.90;;;;;;5150355;27;20210;-71
2021/07/19 02:53:24;;;;;;;10.90;5.00;;;17.30;99.90;;;;;;5125388;27;20219;-71
2021/07/19 02:56:29;;;;;;;13.43;4.50;;;17.40;99.90;;;;;;5131927;27;20281;-71
2021/07/19 02:59:17;;;;;;;8.87;4.27;;;17.30;99.90;;;;;;5130659;27;20211;-71
2021/07/19 03:02:05;;;;;;;12.47;4.57;;;17.30;99.90;;;;;;5141099;27;20201;-71
2021/07/19 03:05:18;;;;;;;14.83;4.07;;;17.30;99.90;;;;;;5130177;28;20218;-71
2021/07/19 03:08:07;;;;;;;10.63;4.37;;;17.20;99.90;;;;;;5131388;27;20673;-71
2021/07/19 03:10:55;;;;;;;11.13;4.00;;;17.20;99.90;;;;;;5118241;28;20200;-71
2021/07/19 03:13:44;;;;;;;8.60;4.23;;;17.20;99.90;;;;;;5124791;27;20278;-70
2021/07/19 03:16:31;;;;;;;10.87;4.93;;;17.20;99.90;;;;;;5130080;28;20356;-71
2021/07/19 03:19:20;;;;;;;13.63;4.80;;;17.20;99.90;;;;;;5143759;27;20553;-71
2021/07/19 03:22:08;;;;;;;8.27;4.30;;;17.20;99.90;;;;;;5150586;27;20205;-71
2021/07/19 03:24:55;;;;;;;11.40;4.40;;;17.20;99.90;;;;;;5120955;27;20809;-71
2021/07/19 03:27:44;;;;;;;11.60;4.57;;;17.10;99.90;;;;;;5137345;27;20274;-71
2021/07/19 03:30:32;;;;;;;10.17;4.40;;;17.10;99.90;;;;;;5132423;27;20582;-71
2021/07/19 03:33:20;;;;;;;10.93;5.07;;;17.10;99.90;;;;;;5126719;27;20227;-71
2021/07/19 03:36:08;;;;;;;10.50;4.60;;;17.00;99.90;;;;;;5131557;27;20788;-71
2021/07/19 03:38:55;;;;;;;10.23;4.80;;;17.00;99.90;;;;;;5147601;27;20202;-71
2021/07/19 03:41:43;;;;;;;10.27;4.83;;;16.90;99.90;;;;;;5131400;27;20542;-71
2021/07/19 03:44:32;;;;;;;9.13;5.40;;;16.90;99.90;;;;;;5129118;27;20585;-71
2021/07/19 03:47:20;;;;;;;17.67;5.33;;;16.90;99.90;;;;;;5130423;27;20220;-71
2021/07/19 03:50:08;;;;;;;15.27;5.23;;;16.90;99.90;;;;;;5146377;27;20202;-71
2021/07/19 03:52:56;;;;;;;11.00;5.30;;;16.80;99.90;;;;;;5153710;27;20642;-71
2021/07/19 03:55:45;;;;;;;12.77;5.80;;;16.80;99.90;;;;;;5154140;27;20577;-71
2021/07/19 03:58:32;;;;;;;13.03;5.47;;;16.80;99.90;;;;;;5127560;27;20718;-71
2021/07/19 04:01:22;;;;;;;10.03;5.13;;;16.90;99.90;;;;;;5124641;27;20205;-71
2021/07/19 04:04:16;;;;;;;10.83;5.70;;;16.90;99.90;;;;;;5134227;27;20403;-71
2021/07/19 04:07:04;;;;;;;13.23;5.53;;;16.90;99.90;;;;;;5151046;27;20200;-71
2021/07/19 04:09:51;;;;;;;15.17;6.00;;;16.90;99.90;;;;;;5134531;27;20266;-71
2021/07/19 04:12:40;;;;;;;9.43;4.90;;;17.00;99.90;;;;;;5132028;27;20716;-71
2021/07/19 04:15:29;;;;;;;17.60;6.00;;;17.10;99.90;;;;;;5133853;27;20202;-71
2021/07/19 04:18:21;;;;;;;12.60;5.50;;;17.10;99.90;;;;;;5139210;27;20202;-71
2021/07/19 04:21:10;;;;;;;9.60;5.50;;;17.20;99.90;;;;;;5126302;27;20271;-71
2021/07/19 04:23:59;;;;;;;11.13;5.90;;;17.20;99.90;;;;;;5132507;27;20670;-71
2021/07/19 04:26:52;;;;;;;12.53;5.97;;;17.30;99.90;;;;;;5132949;27;20279;-71
2021/07/19 04:29:39;;;;;;;11.80;5.60;;;17.30;99.90;;;;;;5140697;27;20582;-71
2021/07/19 04:32:27;;;;;;;12.73;6.00;;;17.40;99.90;;;;;;5149701;27;20212;-71
2021/07/19 04:35:18;;;;;;;9.40;5.60;;;17.40;99.90;;;;;;5142864;27;20197;-71
2021/07/19 04:38:06;;;;;;;9.97;5.73;;;17.50;99.90;;;;;;5148679;27;20272;-71
2021/07/19 04:40:54;;;;;;;11.40;6.37;;;17.60;99.90;;;;;;5133913;27;20194;-71
2021/07/19 04:43:42;;;;;;;10.17;5.87;;;17.70;99.90;;;;;;5127523;27;20554;-71
2021/07/19 04:46:29;;;;;;;17.30;6.07;;;17.80;99.90;;;;;;5132760;27;20221;-71
2021/07/19 04:49:17;;;;;;;11.13;5.73;;;17.80;99.90;;;;;;5136942;27;20211;-71
2021/07/19 04:52:07;;;;;;;13.83;6.20;;;18.00;99.90;;;;;;5133496;27;20192;-71
2021/07/19 04:54:55;;;;;;;9.93;6.00;;;18.00;99.90;;;;;;5132415;27;20198;-71
2021/07/19 04:57:44;;;;;;;16.80;6.43;;;18.10;99.90;;;;;;5132075;27;20668;-71
2021/07/19 05:00:32;;;;;;;11.67;5.93;;;18.20;99.90;;;;;;5145617;27;20719;-71
2021/07/19 05:03:20;;;;;;;9.43;5.60;;;18.20;99.90;;;;;;5129766;27;20201;-71
2021/07/19 05:06:07;;;;;;;14.80;6.30;;;18.30;99.90;;;;;;5132177;27;20221;-71
2021/07/19 05:08:56;;;;;;;13.40;5.97;;;18.50;99.90;;;;;;5134463;27;20201;-71
2021/07/19 05:11:44;;;;;;;14.37;5.70;;;18.50;99.90;;;;;;5151577;27;20642;-71
2021/07/19 05:14:32;;;;;;;14.07;5.80;;;18.50;99.90;;;;;;5121720;27;20201;-71
2021/07/19 05:17:19;;;;;;;15.07;6.77;;;18.60;99.90;;;;;;5133695;27;20661;-71
2021/07/19 05:20:12;;;;;;;15.90;5.80;;;18.70;99.90;;;;;;5143404;27;20234;-71
2021/07/19 05:22:59;;;;;;;14.07;6.00;;;18.90;99.90;;;;;;5146663;27;20198;-71
2021/07/19 05:25:48;;;;;;;12.37;5.83;;;19.00;99.90;;;;;;5132528;27;20217;-71
2021/07/19 05:28:36;;;;;;;12.40;6.13;;;19.10;99.90;;;;;;5141161;27;20232;-71
2021/07/19 05:31:23;;;;;;;11.23;6.20;;;19.20;99.90;;;;;;5136859;27;20204;-71
2021/07/19 05:34:11;;;;;;;12.30;6.77;;;19.20;99.90;;;;;;5142770;27;20202;-71
2021/07/19 05:36:59;;;;;;;14.47;5.97;;;19.40;99.90;;;;;;5149478;27;20197;-71
2021/07/19 05:39:47;;;;;;;13.60;6.03;;;19.40;99.90;;;;;;5147365;27;20198;-71
2021/07/19 05:42:36;;;;;;;9.80;6.03;;;19.40;99.90;;;;;;5132433;27;20648;-71
2021/07/19 05:45:23;;;;;;;15.87;6.10;;;19.50;99.90;;;;;;5133589;27;20558;-72
2021/07/19 05:48:11;;;;;;;15.43;6.30;;;19.40;99.90;;;;;;5131745;27;20212;-71
2021/07/19 05:50:59;;;;;;;12.83;6.70;;;19.30;99.90;;;;;;5131433;27;20348;-71
2021/07/19 05:53:46;;;;;;;10.10;5.97;;;19.40;99.90;;;;;;5130770;27;20233;-71
2021/07/19 05:56:35;;;;;;;14.37;6.83;;;19.40;99.90;;;;;;5110549;28;20198;-71
2021/07/19 05:59:23;;;;;;;13.70;6.03;;;19.50;99.90;;;;;;5109404;28;20213;-71
2021/07/19 06:02:11;;;;;;;13.20;5.90;;;19.50;99.90;;;;;;5109846;28;20194;-71
2021/07/19 06:04:59;;;;;;;13.20;6.60;;;19.40;99.90;;;;;;5110528;28;20534;-71
2021/07/19 06:07:46;;;;;;;11.93;6.77;;;19.40;99.90;;;;;;5109268;28;20203;-71
2021/07/19 06:10:34;;;;;;;12.60;6.27;;;19.50;99.90;;;;;;5110866;28;20199;-71
2021/07/19 06:13:21;;;;;;;12.40;6.13;;;19.70;99.90;;;;;;5109265;28;20695;-71
2021/07/19 06:16:11;;;;;;;13.87;6.67;;;19.80;99.90;;;;;;5101591;28;20210;-71
2021/07/19 06:18:59;;;;;;;15.27;6.47;;;20.00;99.90;;;;;;5140116;27;20227;-71
2021/07/19 06:21:46;;;;;;;13.57;6.63;;;20.10;99.90;;;;;;5131934;27;20821;-71
2021/07/19 06:24:34;;;;;;;12.63;6.43;;;20.20;99.90;;;;;;5129603;27;20209;-70
2021/07/19 06:27:22;;;;;;;11.43;6.33;;;20.20;99.90;;;;;;5130659;27;20229;-70
2021/07/19 06:30:14;;;;;;;11.73;6.60;;;20.20;99.90;;;;;;5130891;27;20281;-71
2021/07/19 06:33:10;;;;;;;14.40;6.73;;;20.30;99.90;;;;;;5121916;27;20204;-70
2021/07/19 06:35:59;;;;;;;15.20;6.80;;;20.50;99.90;;;;;;5131805;27;20194;-70
2021/07/19 06:38:49;;;;;;;10.30;6.17;;;20.60;99.90;;;;;;5135587;27;20195;-70
2021/07/19 06:41:42;;;;;;;10.27;6.23;;;20.60;99.90;;;;;;5131207;27;20231;-71
2021/07/19 06:44:31;;;;;;;12.30;7.07;;;20.80;99.90;;;;;;5123740;27;20195;-70
2021/07/19 06:47:21;;;;;;;12.80;6.23;;;21.10;99.90;;;;;;5122556;27;20226;-70
2021/07/19 06:50:11;;;;;;;14.73;6.20;;;21.20;99.90;;;;;;5122802;27;20203;-70
2021/07/19 06:52:59;;;;;;;12.83;6.80;;;21.40;99.90;;;;;;5137598;27;20293;-71
2021/07/19 06:55:46;;;;;;;10.73;6.23;;;21.50;99.90;;;;;;5135242;27;20199;-71
2021/07/19 06:58:35;;;;;;;16.60;6.57;;;21.50;99.90;;;;;;5140155;27;20681;-71
2021/07/19 07:01:23;;;;;;;13.43;6.10;;;21.70;99.90;;;;;;5142680;27;20195;-71
2021/07/19 07:04:10;;;;;;;12.67;6.40;;;21.80;99.90;;;;;;5125636;27;20198;-71
2021/07/19 07:06:59;;;;;;;10.13;5.73;;;22.00;99.90;;;;;;5131981;27;20214;-71
2021/07/19 07:09:48;;;;;;;14.03;6.33;;;22.00;99.90;;;;;;5124229;27;20205;-71
2021/07/19 07:12:38;;;;;;;12.13;5.83;;;21.60;99.90;;;;;;5132025;27;20205;-71
2021/07/19 07:15:26;;;;;;;12.63;6.27;;;21.40;99.90;;;;;;5146038;27;20216;-70
2021/07/19 07:18:14;;;;;;;10.97;5.83;;;21.30;99.90;;;;;;5143144;27;20206;-71
2021/07/19 07:21:02;;;;;;;11.47;6.60;;;21.40;99.90;;;;;;5133965;27;20681;-71
2021/07/19 07:23:51;;;;;;;10.10;6.00;;;21.60;99.90;;;;;;5134469;27;20305;-71
2021/07/19 07:26:38;;;;;;;12.53;6.40;;;21.70;99.90;;;;;;5135686;27;20210;-70
2021/07/19 07:29:26;;;;;;;12.77;6.17;;;21.80;99.90;;;;;;5133516;27;20197;-70
2021/07/19 07:32:14;;;;;;;11.07;6.37;;;21.90;99.90;;;;;;5137462;27;20233;-70
2021/07/19 07:35:02;;;;;;;14.77;7.10;;;21.90;99.90;;;;;;5147289;27;20201;-66
2021/07/19 07:37:50;;;;;;;13.87;6.10;;;22.00;99.90;;;;;;5135609;27;20532;-66
2021/07/19 07:40:39;;;;;;;16.13;6.13;;;21.80;99.90;;;;;;5147141;27;20257;-66
2021/07/19 07:43:27;;;;;;;13.23;6.33;;;21.60;99.90;;;;;;5152909;27;20200;-66
2021/07/19 07:46:14;;;;;;;13.80;6.40;;;21.70;99.90;;;;;;5148622;27;20279;-66
2021/07/19 07:49:02;;;;;;;13.37;6.80;;;21.80;99.90;;;;;;5131496;27;20210;-65
2021/07/19 07:51:50;;;;;;;15.03;6.40;;;22.00;99.90;;;;;;5147258;27;20661;-66
2021/07/19 07:54:37;;;;;;;15.37;5.70;;;22.00;99.90;;;;;;5141779;27;20191;-66
2021/07/19 07:57:26;;;;;;;9.67;5.73;;;22.20;99.90;;;;;;5133214;27;20280;-65
2021/07/19 08:00:15;;;;;;;14.27;6.43;;;22.20;99.90;;;;;;5147980;27;20336;-65
2021/07/19 08:03:03;;;;;;;16.03;7.30;;;22.40;99.90;;;;;;5150867;27;20633;-65
2021/07/19 08:05:50;;;;;;;15.10;6.60;;;22.40;99.90;;;;;;5146268;27;20226;-65
2021/07/19 08:08:38;;;;;;;16.30;6.80;;;22.60;99.90;;;;;;5133812;27;20205;-65
2021/07/19 08:11:26;;;;;;;17.53;7.77;;;22.60;99.90;;;;;;5154182;27;20205;-65
2021/07/19 08:14:15;;;;;;;11.87;6.67;;;22.90;99.90;;;;;;5152714;27;20193;-65
2021/07/19 08:17:03;;;;;;;13.10;6.80;;;23.10;99.90;;;;;;5133877;27;20206;-65
2021/07/19 08:19:52;;;;;;;12.43;6.00;;;23.50;99.90;;;;;;5126966;27;20237;-65
2021/07/19 08:22:39;;;;;;;10.57;6.20;;;23.70;99.90;;;;;;5144256;27;20652;-66
2021/07/19 08:25:27;;;;;;;14.00;6.70;;;23.80;99.90;;;;;;5150120;27;20205;-65
2021/07/19 08:28:15;;;;;;;9.87;6.60;;;23.90;99.90;;;;;;5135777;27;20225;-66
2021/07/19 08:31:04;;;;;;;14.13;7.03;;;24.30;99.90;;;;;;5134905;27;20197;-66
2021/07/19 08:33:51;;;;;;;14.07;6.90;;;24.50;99.90;;;;;;5142976;27;20191;-66
2021/07/19 08:36:39;;;;;;;11.73;6.65;;;24.50;99.90;;;;;;5134313;27;20212;-65
2021/07/19 08:39:26;;;;;;;14.33;6.93;;;24.60;99.90;;;;;;5132370;27;20201;-65
2021/07/19 08:42:14;;;;;;;11.50;6.70;;;24.30;99.90;;;;;;5152814;27;20201;-65
2021/07/19 08:45:02;;;;;;;14.33;6.90;;;24.40;99.90;;;;;;5151861;27;20205;-66
2021/07/19 08:47:52;;;;;;;15.65;7.97;;;24.40;99.90;;;;;;5153789;27;20686;-65
2021/07/19 08:50:41;;;;;;;13.45;7.88;;;24.40;99.90;;;;;;5152637;27;20564;-65
2021/07/19 08:53:29;;;;;;;13.63;7.80;;;23.90;99.90;;;;;;5144168;27;20198;-65
2021/07/19 08:56:16;;;;;;;18.38;8.77;;;24.20;99.90;;;;;;5129844;27;20201;-65
2021/07/19 08:59:04;;;;;;;14.35;8.68;;;24.60;99.90;;;;;;5135709;27;20202;-65
2021/07/19 09:01:51;;;;;;;21.27;8.20;;;24.90;99.90;;;;;;5134013;27;20198;-65
2021/07/19 09:04:40;;;;;;;14.18;8.63;;;25.30;99.90;;;;;;5145987;27;20708;-66
2021/07/19 09:07:28;;;;;;;15.13;8.02;;;25.50;99.90;;;;;;5131875;27;20255;-65
2021/07/19 09:10:16;;;;;;;14.57;8.20;;;25.60;99.90;;;;;;5132398;27;20662;-66
2021/07/19 09:13:04;;;;;;;15.88;8.55;;;25.60;99.90;;;;;;5153850;27;20673;-66
2021/07/19 09:15:53;;;;;;;13.20;8.52;;;25.70;99.90;;;;;;5150971;27;20554;-66
2021/07/19 09:18:40;;;;;;;18.40;9.07;;;25.80;99.90;;;;;;5150332;27;20221;-66
2021/07/19 09:21:32;;;;;;;15.93;9.50;;;25.80;99.90;;;;;;5152329;27;20229;-66
2021/07/19 09:24:23;;;;;;;17.50;9.70;;;25.90;99.90;;;;;;5150656;27;20339;-66
2021/07/19 09:27:17;;;;;;;16.60;9.95;;;26.10;99.90;;;;;;5132078;27;20742;-66
2021/07/19 09:30:13;;;;;;;14.82;9.68;;;26.30;99.90;;;;;;5132660;27;20543;-66
2021/07/19 09:33:03;;;;;;;15.32;9.18;;;26.20;99.90;;;;;;5130393;27;20847;-66
2021/07/19 09:35:52;;;;;;;16.13;9.63;;;26.10;99.90;;;;;;5134051;27;20319;-66
2021/07/19 09:38:41;;;;;;;16.00;10.13;;;25.80;99.90;;;;;;5151492;27;20225;-66
2021/07/19 09:41:29;;;;;;;13.80;8.90;;;26.00;99.90;;;;;;5152103;27;20560;-66
2021/07/19 09:44:17;;;;;;;15.13;9.52;;;26.10;99.90;;;;;;5149866;27;20206;-66
2021/07/19 09:47:06;;;;;;;16.88;9.38;;;26.40;99.90;;;;;;5150830;27;20217;-66
2021/07/19 09:49:54;;;;;;;15.15;9.50;;;26.40;99.90;;;;;;5135467;27;20669;-66
2021/07/19 09:52:41;;;;;;;17.73;10.27;;;26.50;99.90;;;;;;5142070;27;20225;-65
2021/07/19 09:55:31;;;;;;;17.33;10.95;;;26.70;99.90;;;;;;5131287;27;20612;-66
2021/07/19 09:58:22;;;;;;;17.05;10.48;;;26.80;99.90;;;;;;5132035;27;20763;-66
2021/07/19 10:01:10;;;;;;;16.23;9.15;;;27.20;99.90;;;;;;5137336;27;20300;-66
2021/07/19 10:04:08;;;;;;;18.25;9.30;;;27.50;99.90;;;;;;5122059;27;20198;-66
2021/07/19 10:06:56;;;;;;;16.10;9.45;;;27.70;99.90;;;;;;5119929;27;20219;-66
2021/07/19 10:09:43;;;;;;;14.98;9.27;;;27.60;99.90;;;;;;5124015;27;20535;-67
2021/07/19 10:12:32;;;;;;;18.05;10.25;;;27.40;99.90;;;;;;5115025;27;20344;-66
2021/07/19 10:15:20;;;;;;;13.38;9.15;;;27.20;99.90;;;;;;5122557;27;20194;-66
2021/07/19 10:18:10;;;;;;;17.48;10.02;;;27.50;99.90;;;;;;5115005;27;20207;-66
2021/07/19 10:20:57;;;;;;;18.60;9.45;;;27.80;99.90;;;;;;5133617;27;20679;-66
2021/07/19 10:23:45;;;;;;;15.23;9.13;;;27.90;99.90;;;;;;5135773;27;20228;-66
2021/07/19 10:26:35;;;;;;;14.23;8.82;;;27.40;99.90;;;;;;5137649;27;20223;-66
2021/07/19 10:29:25;;;;;;;15.40;8.45;;;27.40;99.90;;;;;;5122357;27;20988;-66
2021/07/19 10:32:13;;;;;;;14.45;8.90;;;27.40;99.90;;;;;;5121701;27;20332;-66
2021/07/19 10:35:00;;;;;;;15.80;8.82;;;27.40;99.90;;;;;;5120459;27;20547;-66
2021/07/19 10:37:51;;;;;;;13.63;8.43;;;27.50;99.90;;;;;;5140245;27;20193;-66
2021/07/19 10:40:39;;;;;;;12.90;8.25;;;27.80;99.90;;;;;;5141308;27;20201;-66
2021/07/19 10:43:29;;;;;;;16.67;8.57;;;27.90;99.90;;;;;;5117999;27;20604;-66
2021/07/19 10:46:19;;;;;;;16.38;8.38;;;27.90;99.90;;;;;;5142804;27;20230;-67
2021/07/19 10:49:07;;;;;;;14.57;8.48;;;28.10;99.90;;;;;;5135076;27;20281;-67
2021/07/19 10:51:55;;;;;;;12.52;8.23;;;28.00;97.30;;;;;;5121775;27;20227;-67
2021/07/19 10:54:47;;;;;;;13.00;7.97;;;27.90;97.80;;;;;;5123203;27;20202;-67
2021/07/19 10:57:36;;;;;;;14.88;8.00;;;28.00;98.90;;;;;;5119715;27;20212;-66
2021/07/19 11:00:23;;;;;;;13.60;8.70;;;28.10;97.80;;;;;;5123489;27;20199;-66
2021/07/19 11:03:13;;;;;;;13.25;7.68;;;28.40;97.60;;;;;;5122368;27;20213;-67
2021/07/19 11:06:01;;;;;;;12.90;8.38;;;28.50;96.40;;;;;;5132473;27;20194;-67
2021/07/19 11:08:49;;;;;;;13.35;8.02;;;28.50;94.80;;;;;;5132209;27;20548;-66
2021/07/19 11:11:38;;;;;;;11.35;7.72;;;28.70;96.30;;;;;;5141826;27;20636;-66
2021/07/19 11:14:25;;;;;;;12.75;8.30;;;28.80;94.90;;;;;;5112184;27;20207;-67
2021/07/19 11:17:13;;;;;;;11.57;7.68;;;28.70;94.00;;;;;;5129688;27;20658;-67
2021/07/19 11:20:13;;;;;;;11.48;7.72;;;28.40;87.50;;;;;;5133763;27;20231;-67
2021/07/19 11:23:02;;;;;;;14.52;8.32;;;28.30;91.20;;;;;;5142710;27;20198;-66
2021/07/19 11:25:52;;;;;;;14.80;8.75;;;28.60;92.00;;;;;;5134713;27;20244;-66
2021/07/19 11:28:42;;;;;;;14.50;8.30;;;28.80;93.60;;;;;;5142690;27;20655;-66
2021/07/19 11:31:30;;;;;;;10.68;7.57;;;29.00;93.20;;;;;;5142557;27;20557;-66
2021/07/19 11:34:24;;;;;;;16.00;8.70;;;29.20;93.50;;;;;;5113550;27;20206;-66
2021/07/19 11:37:13;;;;;;;14.25;8.68;;;29.10;90.20;;;;;;5127836;27;20792;-67
2021/07/19 11:40:01;;;;;;;14.07;8.40;;;28.40;93.20;;;;;;5117495;27;20195;-66
2021/07/19 11:42:50;;;;;;;10.88;7.22;;;28.60;92.20;;;;;;5123914;27;20642;-66
2021/07/19 11:45:41;;;;;;;14.35;7.57;;;28.90;91.30;;;;;;5127419;27;20689;-66
2021/07/19 11:48:29;;;;;;;12.10;8.15;;;29.30;93.70;;;;;;5123263;27;20571;-66
2021/07/19 11:51:16;;;;;;;11.70;7.55;;;29.60;93.00;;;;;;5131458;27;20202;-66
2021/07/19 11:54:06;;;;;;;10.88;7.53;;;29.40;92.00;;;;;;5132628;27;20571;-66
2021/07/19 11:56:54;;;;;;;13.82;7.60;;;29.60;92.90;;;;;;5126589;27;20626;-66
2021/07/19 11:59:44;;;;;;;11.77;7.78;;;29.70;90.70;;;;;;5127444;27;20575;-66
2021/07/19 12:02:31;;;;;;;14.13;8.32;;;29.40;89.50;;;;;;5120279;27;20575;-66
2021/07/19 12:05:19;;;;;;;15.32;8.32;;;29.90;93.00;;;;;;5123615;27;20202;-66
2021/07/19 12:08:08;;;;;;;16.25;9.18;;;29.80;89.10;;;;;;5124607;27;20623;-66
2021/07/19 12:11:01;;;;;;;13.45;9.23;;;29.70;87.50;;;;;;5138431;27;20668;-66
2021/07/19 12:13:49;;;;;;;13.43;8.88;;;29.60;87.70;;;;;;5127129;27;20251;-66
2021/07/19 12:16:37;;;;;;;15.60;9.60;;;29.70;90.40;;;;;;5126540;27;20202;-66
2021/07/19 12:19:25;;;;;;;13.80;9.05;;;29.50;89.40;;;;;;5131511;27;20198;-66
2021/07/19 12:22:12;;;;;;;13.98;9.50;;;29.70;90.90;;;;;;5120407;27;20207;-66
2021/07/19 12:25:00;;;;;;;15.88;9.60;;;29.70;90.80;;;;;;5125295;27;20198;-67
2021/07/19 12:27:58;;;;;;;16.35;10.27;;;29.70;90.60;;;;;;5126479;27;20246;-66
2021/07/19 12:30:45;;;;;;;16.67;10.30;;;29.80;87.40;;;;;;5131472;27;20252;-67
2021/07/19 12:33:33;;;;;;;22.02;9.63;;;29.70;88.20;;;;;;5128262;27;20195;-66
2021/07/19 12:36:21;;;;;;;19.88;10.18;;;30.00;90.30;;;;;;5135797;27;20198;-66
2021/07/19 12:39:09;;;;;;;15.00;10.57;;;29.90;82.90;;;;;;5139394;27;20202;-66
2021/07/19 12:41:57;;;;;;;18.27;10.35;;;29.70;87.00;;;;;;5129377;27;20268;-66
2021/07/19 12:44:50;;;;;;;18.38;11.43;;;30.00;85.30;;;;;;5125126;27;20939;-67
2021/07/19 12:47:38;;;;;;;19.58;11.60;;;30.20;86.70;;;;;;5143831;27;20222;-66
2021/07/19 12:50:25;;;;;;;22.15;13.68;;;30.40;86.00;;;;;;5142041;27;20300;-66
2021/07/19 12:53:14;;;;;;;27.77;14.48;;;30.40;81.20;;;;;;5126503;27;20202;-66
2021/07/19 12:56:12;;;;;;;20.13;13.73;;;30.50;77.90;;;;;;5121488;27;20202;-66
2021/07/19 12:59:03;;;;;;;23.25;14.15;;;30.30;74.90;;;;;;5133972;27;20203;-66
2021/07/19 13:01:58;;;;;;;21.15;11.88;;;30.30;79.40;;;;;;5122168;27;20199;-66
2021/07/19 13:04:50;;;;;;;18.02;11.68;;;30.70;83.50;;;;;;5133008;27;20190;-66
2021/07/19 13:07:39;;;;;;;18.02;11.55;;;30.80;83.50;;;;;;5133893;27;20229;-66
2021/07/19 13:10:26;;;;;;;20.02;12.13;;;30.40;83.00;;;;;;5118593;27;20207;-67
2021/07/19 13:13:14;;;;;;;16.58;10.93;;;29.90;82.00;;;;;;5125426;27;20211;-67
2021/07/19 13:16:01;;;;;;;19.67;11.07;;;30.00;86.30;;;;;;5125127;27;20207;-66
2021/07/19 13:18:58;;;;;;;16.67;11.30;;;30.30;86.80;;;;;;5142402;27;20536;-66
2021/07/19 13:21:45;;;;;;;19.08;12.30;;;30.50;83.50;;;;;;5120199;27;20219;-66
2021/07/19 13:24:37;;;;;;;17.92;11.93;;;30.80;82.70;;;;;;5132826;27;20671;-66
2021/07/19 13:27:25;;;;;;;21.92;13.25;;;30.70;76.10;;;;;;5125511;27;20676;-66
2021/07/19 13:30:14;;;;;;;20.77;12.65;;;31.10;81.50;;;;;;5134312;27;20210;-66
2021/07/19 13:33:05;;;;;;;20.88;12.15;;;31.00;76.50;;;;;;5129162;27;20194;-66
2021/07/19 13:35:55;;;;;;;20.27;11.90;;;31.00;75.70;;;;;;5126451;27;20222;-66
2021/07/19 13:38:43;;;;;;;22.70;11.85;;;31.00;78.70;;;;;;5125619;27;20198;-66
2021/07/19 13:41:31;;;;;;;20.13;11.88;;;30.90;76.30;;;;;;5130582;27;20206;-66
2021/07/19 13:44:19;;;;;;;18.35;12.02;;;30.80;79.40;;;;;;5120060;27;20661;-66
2021/07/19 13:47:06;;;;;;;21.80;12.13;;;30.60;80.60;;;;;;5115123;27;20223;-67
2021/07/19 13:49:54;;;;;;;21.17;11.40;;;30.40;79.70;;;;;;5120387;27;20336;-66
2021/07/19 13:52:43;;;;;;;18.98;10.63;;;30.40;81.30;;;;;;5127291;27;20202;-66
2021/07/19 13:55:35;;;;;;;20.23;11.95;;;30.30;82.20;;;;;;5136495;27;20244;-66
2021/07/19 13:58:23;;;;;;;17.20;11.45;;;30.80;81.60;;;;;;5127931;27;20668;-66
2021/07/19 14:01:10;;;;;;;19.80;12.02;;;31.20;81.90;;;;;;5121240;27;20212;-67
2021/07/19 14:03:58;;;;;;;18.70;11.10;;;31.00;80.40;;;;;;5122394;27;20202;-67
2021/07/19 14:06:46;;;;;;;18.65;10.82;;;30.60;82.70;;;;;;5126769;27;20695;-66
2021/07/19 14:09:35;;;;;;;19.95;11.02;;;30.30;82.90;;;;;;5126833;27;20210;-66
2021/07/19 14:12:22;;;;;;;20.23;10.82;;;29.80;83.60;;;;;;5141242;27;20199;-67
2021/07/19 14:15:11;;;;;;;21.88;10.45;;;29.30;85.70;;;;;;5126879;27;20214;-66
2021/07/19 14:17:59;;;;;;;19.98;10.25;;;29.20;83.20;;;;;;5124437;27;20199;-67
2021/07/19 14:20:46;;;;;;;19.00;10.30;;;29.50;82.90;;;;;;5122193;27;20231;-67
2021/07/19 14:23:34;;;;;;;19.48;10.63;;;29.80;88.70;;;;;;5128240;27;20214;-67
2021/07/19 14:26:23;;;;;;;17.75;10.68;;;29.70;87.80;;;;;;5121006;27;20235;-66